Time;durP1;ratioP1;P1;durP2;ratioP2;P2;SDS_P1;SDS_P2;PMS_P1;PMS_P2;Temp;Humidity;BMP_temperature;BMP_pressure;BME280_temperature;BME280_humidity;BME280_pressure;Samples;Min_cycle;Max_cycle;Signal;HPM_P1;HPM_P2
2022/03/18 00:00:27;;;;;;;16.33;6.20;;;5.70;99.90;;;;;;5100736;28;20483;-54
2022/03/18 00:02:54;;;;;;;12.77;5.17;;;5.70;99.90;;;;;;5100293;28;20439;-54
2022/03/18 00:05:21;;;;;;;19.45;6.30;;;5.70;99.90;;;;;;5098925;28;20684;-63
2022/03/18 00:07:47;;;;;;;20.45;5.38;;;5.60;99.90;;;;;;5097342;28;20512;-54
2022/03/18 00:10:15;;;;;;;15.20;5.13;;;5.60;99.90;;;;;;5114219;28;20392;-56
2022/03/18 00:12:41;;;;;;;18.38;5.68;;;5.60;99.90;;;;;;5097060;28;20380;-54
2022/03/18 00:15:09;;;;;;;17.95;6.00;;;5.60;99.90;;;;;;5097450;28;20437;-52
2022/03/18 00:17:35;;;;;;;15.05;5.65;;;5.60;99.90;;;;;;5096930;28;20423;-55
2022/03/18 00:20:00;;;;;;;18.35;5.35;;;5.60;99.90;;;;;;5114743;28;20388;-55
2022/03/18 00:22:26;;;;;;;19.93;5.97;;;5.60;99.90;;;;;;5116529;28;20730;-54
2022/03/18 00:24:52;;;;;;;16.17;6.33;;;5.50;99.90;;;;;;5117445;28;20388;-55
2022/03/18 00:27:17;;;;;;;16.35;5.45;;;5.50;99.90;;;;;;5116620;28;20404;-55
2022/03/18 00:29:43;;;;;;;18.50;5.80;;;5.50;99.90;;;;;;5113668;28;20412;-52
2022/03/18 00:32:09;;;;;;;15.57;4.97;;;5.50;99.90;;;;;;5097089;28;20566;-52
2022/03/18 00:34:35;;;;;;;18.83;5.53;;;5.50;99.90;;;;;;5097579;28;20408;-51
2022/03/18 00:37:01;;;;;;;14.30;5.35;;;5.50;99.90;;;;;;5095697;28;20564;-52
2022/03/18 00:39:27;;;;;;;17.27;5.70;;;5.40;99.90;;;;;;5096828;28;20695;-54
2022/03/18 00:41:52;;;;;;;21.20;5.83;;;5.40;99.90;;;;;;5113901;28;20546;-52
2022/03/18 00:44:18;;;;;;;15.23;5.80;;;5.50;99.90;;;;;;5096273;28;20399;-54
2022/03/18 00:46:44;;;;;;;16.63;5.80;;;5.50;99.90;;;;;;5095349;28;20637;-55
2022/03/18 00:52:05;;;;;;;15.18;5.45;;;5.40;99.90;;;;;;5114782;28;20375;-52
2022/03/18 00:54:32;;;;;;;14.87;5.47;;;5.40;99.90;;;;;;5097590;28;20887;-54
2022/03/18 00:56:57;;;;;;;16.50;6.18;;;5.40;99.90;;;;;;5099263;28;20437;-56
2022/03/18 00:59:23;;;;;;;15.55;5.93;;;5.40;99.90;;;;;;5099333;28;20385;-50
2022/03/18 01:01:52;;;;;;;21.77;6.17;;;5.40;99.90;;;;;;5098276;28;20389;-53
2022/03/18 01:04:19;;;;;;;16.40;5.87;;;5.40;99.90;;;;;;5096637;28;20402;-53
2022/03/18 01:06:44;;;;;;;19.40;6.03;;;5.30;99.90;;;;;;5097013;28;20838;-51
2022/03/18 01:09:10;;;;;;;14.50;5.70;;;5.30;99.90;;;;;;5096012;28;20396;-51
2022/03/18 01:11:36;;;;;;;15.53;5.77;;;5.20;99.90;;;;;;5097191;28;20467;-53
2022/03/18 01:14:01;;;;;;;12.47;4.87;;;5.20;99.90;;;;;;5097117;28;20376;-52
2022/03/18 01:16:27;;;;;;;15.63;5.53;;;5.20;99.90;;;;;;5097713;28;20751;-52
2022/03/18 01:18:52;;;;;;;16.30;5.63;;;5.20;99.90;;;;;;5098541;28;20399;-54
2022/03/18 01:21:18;;;;;;;17.87;5.57;;;5.10;99.90;;;;;;5095366;28;20759;-56
2022/03/18 01:23:43;;;;;;;19.60;5.50;;;5.00;99.90;;;;;;5093530;28;20699;-54
2022/03/18 01:26:09;;;;;;;17.35;5.38;;;5.00;99.90;;;;;;5113884;28;20478;-53
2022/03/18 01:28:35;;;;;;;15.23;5.32;;;5.00;99.90;;;;;;5095960;28;20803;-53
2022/03/18 01:31:00;;;;;;;15.50;5.20;;;5.00;99.90;;;;;;5097171;28;20397;-56
2022/03/18 01:33:26;;;;;;;14.93;5.75;;;4.90;99.90;;;;;;5095960;28;20396;-52
2022/03/18 01:35:51;;;;;;;17.33;5.33;;;4.90;99.90;;;;;;5097963;28;20542;-52
2022/03/18 01:38:17;;;;;;;20.53;5.20;;;4.90;99.90;;;;;;5097058;28;20475;-55
2022/03/18 01:40:42;;;;;;;15.93;5.63;;;4.90;99.90;;;;;;5113562;28;20388;-53
2022/03/18 01:43:09;;;;;;;15.23;5.57;;;5.00;99.90;;;;;;5096638;28;20388;-54
2022/03/18 01:45:35;;;;;;;15.32;5.60;;;4.90;99.90;;;;;;5114747;28;20528;-51
2022/03/18 01:48:01;;;;;;;13.10;4.55;;;4.90;99.90;;;;;;5113466;28;20677;-57
2022/03/18 01:50:27;;;;;;;13.65;4.72;;;4.90;99.90;;;;;;5097595;28;20407;-55
2022/03/18 01:52:52;;;;;;;15.15;5.05;;;4.90;99.90;;;;;;5094283;28;20710;-55
2022/03/18 01:55:20;;;;;;;14.52;5.90;;;4.80;99.90;;;;;;5096274;28;20721;-57
2022/03/18 01:57:46;;;;;;;14.53;4.93;;;4.80;99.90;;;;;;5097754;28;20419;-52
2022/03/18 02:00:13;;;;;;;19.33;5.60;;;4.80;99.90;;;;;;5096365;28;20396;-54
2022/03/18 02:02:38;;;;;;;15.15;5.15;;;4.80;99.90;;;;;;5095385;28;20432;-55
2022/03/18 02:05:05;;;;;;;16.97;5.50;;;4.80;99.90;;;;;;5095021;28;20447;-55
2022/03/18 02:07:31;;;;;;;13.30;5.30;;;4.70;99.90;;;;;;5095323;28;20364;-56
2022/03/18 02:09:57;;;;;;;14.93;5.30;;;4.70;99.90;;;;;;5094619;28;20661;-54
2022/03/18 02:12:22;;;;;;;18.57;5.50;;;4.70;99.90;;;;;;5096215;28;20381;-54
2022/03/18 02:14:48;;;;;;;17.30;5.17;;;4.60;99.90;;;;;;5088622;28;20412;-54
2022/03/18 02:17:18;;;;;;;20.98;5.90;;;4.60;99.90;;;;;;5072924;28;20391;-55
2022/03/18 02:19:45;;;;;;;15.70;5.38;;;4.60;99.90;;;;;;5074109;28;20387;-53
2022/03/18 02:22:24;;;;;;;15.85;5.68;;;4.60;99.90;;;;;;5075078;28;20462;-52
2022/03/18 02:24:52;;;;;;;16.95;5.68;;;4.60;99.90;;;;;;5056312;28;20729;-52
2022/03/18 02:27:19;;;;;;;13.93;5.53;;;4.60;99.90;;;;;;5056162;28;20409;-54
2022/03/18 02:29:45;;;;;;;17.25;5.80;;;4.60;99.90;;;;;;5055613;28;20416;-54
2022/03/18 02:32:13;;;;;;;17.20;6.28;;;4.60;99.90;;;;;;5073300;28;20656;-57
2022/03/18 02:34:39;;;;;;;16.33;5.65;;;4.60;99.90;;;;;;5054147;28;20376;-52
2022/03/18 02:37:06;;;;;;;15.55;5.63;;;4.60;99.90;;;;;;5054971;28;20680;-51
2022/03/18 02:39:32;;;;;;;16.40;5.93;;;4.50;99.90;;;;;;5054604;28;20384;-56
2022/03/18 02:41:58;;;;;;;13.65;4.75;;;4.50;99.90;;;;;;5054539;28;20387;-56
2022/03/18 02:44:23;;;;;;;15.20;5.63;;;4.50;99.90;;;;;;5070879;28;20409;-51
2022/03/18 02:46:49;;;;;;;15.40;5.15;;;4.50;99.90;;;;;;5069786;28;20391;-52
2022/03/18 02:49:15;;;;;;;14.35;5.07;;;4.50;99.90;;;;;;5071809;28;20404;-57
2022/03/18 02:51:41;;;;;;;18.88;5.63;;;4.50;99.90;;;;;;5073805;28;20474;-52
2022/03/18 02:54:08;;;;;;;14.98;5.43;;;4.50;99.90;;;;;;5054994;28;20644;-56
2022/03/18 02:56:34;;;;;;;15.93;4.88;;;4.40;99.90;;;;;;5054611;28;20394;-55
2022/03/18 02:59:03;;;;;;;14.38;5.35;;;4.40;99.90;;;;;;5051908;28;23623;-53
2022/03/18 03:01:30;;;;;;;16.88;5.95;;;4.40;99.90;;;;;;5053938;28;20527;-54
2022/03/18 03:03:56;;;;;;;18.77;5.33;;;4.40;99.90;;;;;;5054348;28;20392;-55
2022/03/18 03:09:05;;;;;;;15.45;5.38;;;4.30;99.90;;;;;;5073995;28;20526;-52
2022/03/18 03:11:31;;;;;;;12.77;5.30;;;4.30;99.90;;;;;;5057623;28;20498;-56
2022/03/18 03:13:57;;;;;;;11.53;5.10;;;4.30;99.90;;;;;;5075805;28;20467;-54
2022/03/18 03:16:22;;;;;;;13.80;5.10;;;4.30;99.90;;;;;;5073336;28;20748;-54
2022/03/18 03:18:48;;;;;;;16.33;5.40;;;4.30;99.90;;;;;;5076629;28;20487;-55
2022/03/18 03:21:15;;;;;;;17.42;5.57;;;4.30;99.90;;;;;;5093044;28;20385;-54
2022/03/18 03:23:41;;;;;;;14.27;5.65;;;4.20;99.90;;;;;;5093100;28;20794;-52
2022/03/18 03:26:07;;;;;;;15.10;6.00;;;4.20;99.90;;;;;;5075094;28;20393;-50
2022/03/18 03:28:33;;;;;;;11.33;5.03;;;4.20;99.90;;;;;;5092664;28;20378;-55
2022/03/18 03:30:58;;;;;;;12.27;5.43;;;4.20;99.90;;;;;;5092574;28;20732;-52
2022/03/18 03:33:25;;;;;;;15.65;5.82;;;4.10;99.90;;;;;;5075838;28;20398;-53
2022/03/18 03:35:50;;;;;;;16.97;5.60;;;4.10;99.90;;;;;;5074458;28;20555;-52
2022/03/18 03:38:16;;;;;;;12.83;5.30;;;4.20;99.90;;;;;;5077732;28;20935;-53
2022/03/18 03:40:43;;;;;;;13.90;5.30;;;4.20;99.90;;;;;;5078826;28;20860;-57
2022/03/18 03:43:09;;;;;;;16.27;5.80;;;4.20;99.90;;;;;;5078731;28;20589;-54
2022/03/18 03:45:38;;;;;;;11.00;5.07;;;4.20;99.90;;;;;;5078085;28;20404;-54
2022/03/18 03:48:05;;;;;;;18.48;5.63;;;4.20;99.90;;;;;;5077981;28;20436;-57
2022/03/18 03:50:31;;;;;;;13.00;5.32;;;4.20;99.90;;;;;;5075328;28;20798;-53
2022/03/18 03:52:56;;;;;;;14.13;5.20;;;4.20;99.90;;;;;;5073031;28;20719;-56
2022/03/18 03:55:22;;;;;;;15.68;5.88;;;4.10;99.90;;;;;;5074594;28;20389;-53
2022/03/18 03:57:48;;;;;;;12.63;5.30;;;4.10;99.90;;;;;;5077714;28;20441;-57
2022/03/18 04:00:14;;;;;;;13.18;4.90;;;4.10;99.90;;;;;;5076968;28;21043;-56
2022/03/18 04:02:55;;;;;;;14.02;6.35;;;4.00;99.90;;;;;;5077562;28;20447;-57
2022/03/18 04:05:21;;;;;;;10.40;5.00;;;4.00;99.90;;;;;;5076875;28;20396;-52
2022/03/18 04:07:46;;;;;;;13.70;5.33;;;4.00;99.90;;;;;;5076608;28;20394;-54
2022/03/18 04:10:13;;;;;;;13.47;5.70;;;4.00;99.90;;;;;;5076761;28;20410;-57
2022/03/18 04:12:39;;;;;;;12.27;4.93;;;4.00;99.90;;;;;;5095442;28;20476;-54
2022/03/18 04:15:08;;;;;;;12.45;5.45;;;4.00;99.90;;;;;;5094403;28;20429;-54
2022/03/18 04:17:41;;;;;;;10.40;4.80;;;4.00;99.90;;;;;;5095120;28;20405;-53
2022/03/18 04:20:09;;;;;;;12.27;5.25;;;4.00;99.90;;;;;;5076391;28;20404;-51
2022/03/18 04:22:35;;;;;;;11.60;5.18;;;4.00;99.90;;;;;;5094899;28;20381;-51
2022/03/18 04:25:01;;;;;;;13.05;5.45;;;4.00;99.90;;;;;;5076588;28;20386;-55
2022/03/18 04:27:27;;;;;;;13.32;5.47;;;3.90;99.90;;;;;;5075622;28;20525;-57
2022/03/18 04:29:53;;;;;;;12.98;5.25;;;3.90;99.90;;;;;;5093373;28;20418;-55
2022/03/18 04:32:18;;;;;;;11.43;4.95;;;3.90;99.90;;;;;;5074779;28;20441;-56
2022/03/18 04:34:44;;;;;;;11.32;4.85;;;3.90;99.90;;;;;;5094524;28;20837;-54
2022/03/18 04:37:10;;;;;;;11.68;4.78;;;3.90;99.90;;;;;;5076780;28;20382;-55
2022/03/18 04:39:35;;;;;;;12.43;5.20;;;3.90;99.90;;;;;;5094306;28;20401;-55
2022/03/18 04:42:01;;;;;;;12.23;5.57;;;3.90;99.90;;;;;;5077477;28;20386;-56
2022/03/18 04:44:26;;;;;;;13.17;5.57;;;3.80;99.90;;;;;;5076532;28;20429;-54
2022/03/18 04:46:52;;;;;;;15.77;5.50;;;3.80;99.90;;;;;;5076012;28;20386;-56
2022/03/18 04:49:17;;;;;;;10.73;5.77;;;3.80;99.90;;;;;;5075907;28;20803;-53
2022/03/18 04:51:43;;;;;;;11.10;5.23;;;3.80;99.90;;;;;;5074651;28;20389;-52
2022/03/18 04:54:08;;;;;;;14.30;5.80;;;3.70;99.90;;;;;;5074288;28;20919;-51
2022/03/18 04:59:19;;;;;;;12.07;5.50;;;3.70;99.90;;;;;;5091619;28;20406;-54
2022/03/18 05:01:45;;;;;;;10.77;4.95;;;3.70;99.90;;;;;;5089456;28;20386;-52
2022/03/18 05:04:11;;;;;;;11.85;4.78;;;3.70;99.90;;;;;;5073128;28;20390;-53
2022/03/18 05:06:37;;;;;;;7.80;4.78;;;3.70;99.90;;;;;;5074256;28;20739;-53
2022/03/18 05:09:03;;;;;;;11.35;4.90;;;3.60;99.90;;;;;;5073643;28;20739;-56
2022/03/18 05:11:29;;;;;;;11.63;4.77;;;3.60;99.90;;;;;;5092063;28;20769;-54
2022/03/18 05:13:54;;;;;;;11.02;5.07;;;3.60;99.90;;;;;;5071831;28;20507;-54
2022/03/18 05:16:20;;;;;;;14.38;5.53;;;3.60;99.90;;;;;;5069629;28;20766;-55
2022/03/18 05:18:46;;;;;;;12.57;5.28;;;3.50;99.90;;;;;;5070047;28;20386;-56
2022/03/18 05:21:11;;;;;;;10.97;4.87;;;3.40;99.90;;;;;;5069269;28;20398;-53
2022/03/18 05:23:37;;;;;;;10.40;5.07;;;3.40;99.90;;;;;;5068488;28;20382;-55
2022/03/18 05:26:03;;;;;;;11.63;4.85;;;3.40;99.90;;;;;;5065999;28;20692;-53
2022/03/18 05:28:30;;;;;;;12.45;5.07;;;3.50;99.90;;;;;;5065434;28;20401;-55
2022/03/18 05:30:57;;;;;;;8.75;4.63;;;3.50;99.90;;;;;;5074277;28;20420;-55
2022/03/18 05:33:23;;;;;;;9.32;4.72;;;3.50;99.90;;;;;;5073584;28;20388;-57
2022/03/18 05:35:49;;;;;;;10.88;4.93;;;3.50;99.90;;;;;;5070015;28;20657;-56
2022/03/18 05:38:15;;;;;;;10.73;4.68;;;3.60;99.90;;;;;;5072832;28;20936;-55
2022/03/18 05:40:41;;;;;;;11.48;5.00;;;3.60;99.90;;;;;;5089378;28;20949;-55
2022/03/18 05:43:07;;;;;;;12.85;4.95;;;3.50;99.90;;;;;;5068716;28;20497;-55
2022/03/18 05:45:33;;;;;;;11.88;4.85;;;3.50;99.90;;;;;;5089265;28;20864;-57
2022/03/18 05:47:59;;;;;;;10.60;4.95;;;3.50;99.90;;;;;;5072113;28;20398;-56
2022/03/18 05:50:25;;;;;;;9.10;4.60;;;3.50;99.90;;;;;;5068924;28;20398;-55
2022/03/18 05:52:51;;;;;;;11.20;5.03;;;3.60;99.90;;;;;;5083233;28;20378;-53
2022/03/18 05:55:16;;;;;;;12.00;5.10;;;3.60;99.90;;;;;;5064615;28;20534;-53
2022/03/18 05:57:42;;;;;;;12.70;5.32;;;3.60;99.90;;;;;;5081191;28;20394;-56
2022/03/18 06:00:08;;;;;;;14.15;5.55;;;3.50;99.90;;;;;;5081346;28;20994;-55
2022/03/18 06:02:34;;;;;;;13.30;5.38;;;3.50;99.90;;;;;;5065015;28;20401;-57
2022/03/18 06:05:00;;;;;;;11.10;5.00;;;3.60;99.90;;;;;;5065254;28;20677;-55
2022/03/18 06:07:25;;;;;;;14.57;5.65;;;3.60;99.90;;;;;;5065543;28;20460;-53
2022/03/18 06:12:35;;;;;;;15.25;5.65;;;3.80;99.90;;;;;;5085424;28;20377;-56
2022/03/18 06:15:01;;;;;;;12.83;5.63;;;3.80;99.90;;;;;;5066280;28;20610;-53
2022/03/18 06:17:26;;;;;;;12.17;5.40;;;3.80;99.90;;;;;;5066069;28;20435;-51
2022/03/18 06:19:52;;;;;;;12.10;5.27;;;3.80;99.90;;;;;;5065885;28;20408;-55
2022/03/18 06:22:17;;;;;;;9.88;5.20;;;3.90;99.90;;;;;;5085525;28;20378;-57
2022/03/18 06:24:43;;;;;;;8.88;5.00;;;3.90;99.90;;;;;;5086211;28;20884;-57
2022/03/18 06:27:09;;;;;;;12.07;5.37;;;4.00;99.90;;;;;;5069086;28;20386;-56
2022/03/18 06:29:37;;;;;;;11.60;5.45;;;4.00;99.90;;;;;;5068554;28;20394;-53
2022/03/18 06:32:03;;;;;;;9.15;4.35;;;4.00;99.90;;;;;;5086306;28;20715;-53
2022/03/18 06:34:28;;;;;;;8.90;4.70;;;4.00;99.90;;;;;;5070027;28;20821;-54
2022/03/18 06:36:56;;;;;;;10.60;5.45;;;4.10;99.90;;;;;;5068354;28;20497;-53
2022/03/18 06:39:22;;;;;;;12.65;5.85;;;4.10;99.90;;;;;;5068219;28;20383;-54
2022/03/18 06:41:48;;;;;;;10.25;5.15;;;4.10;99.90;;;;;;5087805;28;20377;-56
2022/03/18 06:44:14;;;;;;;10.40;5.45;;;4.00;99.90;;;;;;5068172;28;20370;-53
2022/03/18 06:46:40;;;;;;;11.45;5.55;;;3.80;99.90;;;;;;5067465;28;20991;-58
2022/03/18 06:49:06;;;;;;;11.90;5.80;;;3.90;99.90;;;;;;5085086;28;20750;-55
2022/03/18 06:51:32;;;;;;;10.38;5.18;;;3.90;99.90;;;;;;5065040;28;20481;-55
2022/03/18 06:53:58;;;;;;;9.88;5.47;;;4.00;99.90;;;;;;5066610;28;20386;-56
2022/03/18 06:56:25;;;;;;;12.10;5.57;;;4.10;99.90;;;;;;5079953;28;20484;-55
2022/03/18 06:58:51;;;;;;;12.25;4.93;;;4.10;99.90;;;;;;5061732;28;20784;-56
2022/03/18 07:01:16;;;;;;;12.98;6.05;;;4.20;99.90;;;;;;5061946;28;20386;-53
2022/03/18 07:03:42;;;;;;;9.13;5.13;;;4.20;99.90;;;;;;5061096;28;20552;-54
2022/03/18 07:06:07;;;;;;;10.27;5.57;;;4.30;99.90;;;;;;5079939;28;20386;-54
2022/03/18 07:08:34;;;;;;;9.33;4.67;;;4.30;99.90;;;;;;5062616;28;20801;-55
2022/03/18 07:11:00;;;;;;;11.50;5.45;;;4.30;99.90;;;;;;5064280;28;20828;-57
2022/03/18 07:13:25;;;;;;;10.50;5.35;;;4.30;99.90;;;;;;5065193;28;20639;-56
2022/03/18 07:15:51;;;;;;;9.70;5.28;;;4.30;99.90;;;;;;5066608;28;20409;-55
2022/03/18 07:18:17;;;;;;;10.32;5.30;;;4.40;99.90;;;;;;5068205;28;20473;-52
2022/03/18 07:20:43;;;;;;;9.93;5.13;;;4.40;99.90;;;;;;5067417;28;21023;-54
2022/03/18 07:23:13;;;;;;;9.83;5.13;;;4.50;99.90;;;;;;5065514;28;20805;-52
2022/03/18 07:25:41;;;;;;;9.50;5.20;;;4.50;99.90;;;;;;5067243;28;20389;-54
2022/03/18 07:28:08;;;;;;;12.50;5.43;;;4.60;99.90;;;;;;5067580;28;20423;-57
2022/03/18 07:30:36;;;;;;;13.30;5.95;;;4.70;99.90;;;;;;5085352;28;20697;-55
2022/03/18 07:33:02;;;;;;;10.10;5.85;;;4.70;99.90;;;;;;5066176;28;20382;-50
2022/03/18 07:35:28;;;;;;;11.95;5.65;;;4.70;99.90;;;;;;5064207;28;20378;-55
2022/03/18 07:37:53;;;;;;;9.82;5.70;;;4.70;99.90;;;;;;5066046;28;20800;-53
2022/03/18 07:40:19;;;;;;;13.50;6.88;;;4.70;99.90;;;;;;5065900;28;20394;-52
2022/03/18 07:42:48;;;;;;;22.38;8.07;;;4.70;99.90;;;;;;5085470;28;20694;-56
2022/03/18 07:45:20;;;;;;;12.77;6.32;;;4.70;99.90;;;;;;5066209;28;20374;-55
2022/03/18 07:47:49;;;;;;;14.82;7.20;;;4.70;99.90;;;;;;5064312;28;20495;-52
2022/03/18 07:50:20;;;;;;;11.95;6.65;;;4.70;99.90;;;;;;5060729;28;20402;-48
2022/03/18 07:52:46;;;;;;;10.82;6.63;;;4.80;99.90;;;;;;5082560;28;20648;-53
2022/03/18 07:55:12;;;;;;;19.45;8.38;;;4.80;99.90;;;;;;5079813;28;20633;-52
2022/03/18 07:57:37;;;;;;;13.37;6.50;;;4.70;99.90;;;;;;5064410;28;20382;-52
2022/03/18 08:00:04;;;;;;;12.10;6.70;;;4.80;99.90;;;;;;5068038;28;20821;-57
2022/03/18 08:02:29;;;;;;;11.93;6.85;;;4.80;99.90;;;;;;5069664;28;20417;-54
2022/03/18 08:04:54;;;;;;;13.50;7.05;;;4.80;99.90;;;;;;5069235;28;20397;-54
2022/03/18 08:07:20;;;;;;;17.03;7.27;;;4.80;99.90;;;;;;5068991;28;20394;-56
2022/03/18 08:09:46;;;;;;;20.33;8.20;;;4.90;99.90;;;;;;5070969;28;20414;-56
2022/03/18 08:12:12;;;;;;;23.90;8.87;;;4.80;99.90;;;;;;5070870;28;20379;-54
2022/03/18 08:14:38;;;;;;;20.23;8.20;;;4.60;99.90;;;;;;5070853;28;20385;-52
2022/03/18 08:17:04;;;;;;;13.10;6.75;;;4.60;99.90;;;;;;5072113;28;20840;-57
2022/03/18 08:19:29;;;;;;;17.47;7.77;;;4.70;99.90;;;;;;5071259;28;20421;-54
2022/03/18 08:21:55;;;;;;;23.47;8.87;;;4.80;99.90;;;;;;5088363;28;20610;-52
2022/03/18 08:24:20;;;;;;;16.15;7.53;;;4.80;99.90;;;;;;5070025;28;20394;-52
2022/03/18 08:26:46;;;;;;;19.75;8.15;;;4.90;99.90;;;;;;5069781;28;20378;-52
2022/03/18 08:29:12;;;;;;;16.57;7.50;;;5.00;99.90;;;;;;5070300;28;20386;-54
2022/03/18 08:31:37;;;;;;;20.37;8.30;;;5.10;99.90;;;;;;5070746;28;20789;-53
2022/03/18 08:34:03;;;;;;;20.17;8.90;;;5.20;99.90;;;;;;5089223;28;20388;-54
2022/03/18 08:36:28;;;;;;;15.05;7.20;;;5.30;99.90;;;;;;5069288;28;20389;-55
2022/03/18 08:38:54;;;;;;;19.00;8.47;;;5.40;99.90;;;;;;5088670;28;20393;-55
2022/03/18 08:41:19;;;;;;;15.93;7.70;;;5.50;99.90;;;;;;5070848;28;20470;-55
2022/03/18 08:43:45;;;;;;;15.43;7.43;;;5.50;99.90;;;;;;5068972;28;20732;-55
2022/03/18 08:46:10;;;;;;;13.80;7.10;;;5.60;99.90;;;;;;5067037;28;20404;-52
2022/03/18 08:48:36;;;;;;;19.50;7.83;;;5.70;99.90;;;;;;5068030;28;20390;-55
2022/03/18 08:51:01;;;;;;;18.63;7.63;;;5.80;99.90;;;;;;5069178;28;20409;-55
2022/03/18 08:53:27;;;;;;;16.43;7.03;;;5.90;99.90;;;;;;5068600;28;20854;-55
2022/03/18 08:55:54;;;;;;;15.00;6.87;;;6.00;99.90;;;;;;5064794;28;20395;-53
2022/03/18 08:58:22;;;;;;;20.58;7.68;;;6.10;99.90;;;;;;5085311;28;20385;-55
2022/03/18 09:00:47;;;;;;;15.38;6.82;;;6.30;99.90;;;;;;5087290;28;20694;-51
2022/03/18 09:03:13;;;;;;;14.80;6.93;;;6.30;99.90;;;;;;5065675;28;20677;-55
2022/03/18 09:05:38;;;;;;;9.60;5.95;;;6.40;99.90;;;;;;5084564;28;20393;-56
2022/03/18 09:08:04;;;;;;;14.90;7.23;;;6.40;99.90;;;;;;5064793;28;20397;-56
2022/03/18 09:10:30;;;;;;;17.13;7.20;;;6.50;99.90;;;;;;5064324;28;20397;-58
2022/03/18 09:12:58;;;;;;;19.23;7.07;;;6.50;99.90;;;;;;5063414;28;20465;-56
2022/03/18 09:15:25;;;;;;;12.57;6.60;;;6.40;99.90;;;;;;5062261;28;20813;-58
2022/03/18 09:17:51;;;;;;;16.67;7.27;;;6.50;99.90;;;;;;5081387;28;20514;-56
2022/03/18 09:20:16;;;;;;;16.03;6.60;;;6.60;99.90;;;;;;5065781;28;20397;-55
2022/03/18 09:22:42;;;;;;;15.80;6.63;;;6.70;99.90;;;;;;5065011;28;20402;-51
2022/03/18 09:25:08;;;;;;;13.87;6.53;;;6.80;99.90;;;;;;5066400;28;20455;-51
2022/03/18 09:27:34;;;;;;;10.48;5.88;;;6.90;99.90;;;;;;5084484;28;20695;-54
2022/03/18 09:30:00;;;;;;;11.13;6.07;;;7.10;99.90;;;;;;5066818;28;20592;-55
2022/03/18 09:32:27;;;;;;;12.27;6.50;;;7.20;99.90;;;;;;5066309;28;20442;-53
2022/03/18 09:34:54;;;;;;;11.23;6.18;;;7.30;99.90;;;;;;5069377;28;20390;-51
2022/03/18 09:37:19;;;;;;;14.32;7.10;;;7.40;99.90;;;;;;5068418;28;20571;-54
2022/03/18 09:39:45;;;;;;;14.60;6.57;;;7.60;99.90;;;;;;5068589;28;20759;-52
2022/03/18 09:42:10;;;;;;;9.68;5.57;;;7.60;99.90;;;;;;5067690;28;20390;-53
2022/03/18 09:44:38;;;;;;;12.30;6.05;;;7.60;99.90;;;;;;5064669;28;20534;-52
2022/03/18 09:47:06;;;;;;;14.20;6.70;;;7.70;99.90;;;;;;5065453;28;20382;-54
2022/03/18 09:49:32;;;;;;;16.30;6.68;;;7.70;99.90;;;;;;5063170;28;20617;-51
2022/03/18 09:51:58;;;;;;;11.73;6.93;;;7.80;99.90;;;;;;5079304;28;20397;-52
2022/03/18 09:54:24;;;;;;;10.98;6.47;;;7.80;99.90;;;;;;5064629;28;20508;-55
2022/03/18 09:56:50;;;;;;;14.77;7.15;;;7.90;99.90;;;;;;5064752;28;20397;-53
2022/03/18 09:59:16;;;;;;;12.23;6.47;;;7.90;99.90;;;;;;5082267;28;20464;-53
2022/03/18 10:01:42;;;;;;;12.77;6.90;;;8.00;99.90;;;;;;5063604;28;20455;-53
2022/03/18 10:04:12;;;;;;;9.93;5.57;;;8.00;99.90;;;;;;5065381;28;20386;-54
2022/03/18 10:06:42;;;;;;;11.70;6.57;;;8.10;99.90;;;;;;5066906;28;20409;-53
2022/03/18 10:09:09;;;;;;;11.98;6.00;;;8.20;99.90;;;;;;5090328;28;20377;-54
2022/03/18 10:11:38;;;;;;;10.77;5.80;;;8.20;99.90;;;;;;5089394;28;20394;-50
2022/03/18 10:14:14;;;;;;;10.98;6.35;;;8.30;99.90;;;;;;5089908;28;20472;-53
2022/03/18 10:16:48;;;;;;;17.40;6.70;;;8.40;99.90;;;;;;5072237;28;20489;-54
2022/03/18 10:19:15;;;;;;;13.70;6.70;;;8.50;99.90;;;;;;5071357;28;20381;-53
2022/03/18 10:22:02;;;;;;;14.15;6.70;;;8.50;99.90;;;;;;5071463;28;20782;-51
2022/03/18 10:24:36;;;;;;;16.70;6.93;;;8.60;99.90;;;;;;5071187;28;20389;-59
2022/03/18 10:27:13;;;;;;;16.60;6.80;;;8.60;99.90;;;;;;5091145;28;20676;-58
2022/03/18 10:29:43;;;;;;;14.57;6.40;;;8.90;99.90;;;;;;5071388;28;20402;-56
2022/03/18 10:32:09;;;;;;;16.95;7.32;;;8.80;99.90;;;;;;5069018;28;20370;-55
2022/03/18 10:37:21;;;;;;;12.45;6.25;;;8.90;99.90;;;;;;5087514;28;20389;-56
2022/03/18 10:39:50;;;;;;;20.03;7.40;;;9.00;99.90;;;;;;5071695;28;20480;-56
2022/03/18 10:42:19;;;;;;;13.75;6.97;;;9.00;99.90;;;;;;5088979;28;20425;-52
2022/03/18 10:44:53;;;;;;;17.80;6.95;;;9.20;99.90;;;;;;5071006;28;20382;-54
2022/03/18 10:47:30;;;;;;;11.45;5.95;;;9.40;99.90;;;;;;5072374;28;20476;-53
2022/03/18 10:50:11;;;;;;;11.83;5.77;;;9.80;99.90;;;;;;5073068;28;20450;-56
2022/03/18 10:52:48;;;;;;;10.55;5.28;;;10.20;99.90;;;;;;5091539;28;20386;-51
2022/03/18 10:55:20;;;;;;;10.23;5.03;;;10.60;99.90;;;;;;5073950;28;20386;-54
2022/03/18 10:57:50;;;;;;;11.80;6.20;;;11.00;99.90;;;;;;5073813;28;20378;-52
2022/03/18 11:00:16;;;;;;;11.40;5.85;;;11.30;99.90;;;;;;5091105;28;20394;-54
2022/03/18 11:02:42;;;;;;;15.10;5.57;;;11.40;99.90;;;;;;5073766;28;20400;-52
2022/03/18 11:05:11;;;;;;;11.68;6.18;;;11.70;99.90;;;;;;5073022;28;20857;-54
2022/03/18 11:07:41;;;;;;;11.63;5.80;;;11.90;99.90;;;;;;5070713;28;20402;-52
2022/03/18 11:12:56;;;;;;;12.05;5.60;;;12.20;99.90;;;;;;5090034;28;20373;-53
2022/03/18 11:15:25;;;;;;;10.15;5.05;;;12.30;99.90;;;;;;5071362;28;20409;-54
2022/03/18 11:17:51;;;;;;;7.72;4.43;;;12.40;99.90;;;;;;5071850;28;20713;-53
2022/03/18 11:20:20;;;;;;;13.68;6.70;;;12.70;99.90;;;;;;5089016;28;20386;-52
2022/03/18 11:22:48;;;;;;;14.90;5.72;;;12.80;99.90;;;;;;5072169;28;21015;-54
2022/03/18 11:25:16;;;;;;;9.63;4.90;;;12.60;99.90;;;;;;5090514;28;20374;-52
2022/03/18 11:27:44;;;;;;;11.43;5.30;;;12.80;99.90;;;;;;5073715;28;20389;-55
2022/03/18 11:30:35;;;;;;;11.27;5.72;;;13.20;99.90;;;;;;5074021;28;20435;-55
2022/03/18 11:33:20;;;;;;;16.20;6.35;;;13.30;99.90;;;;;;5073887;28;20385;-50
2022/03/18 11:35:49;;;;;;;10.70;5.15;;;13.40;99.90;;;;;;5090919;28;20819;-53
2022/03/18 11:38:25;;;;;;;13.35;5.85;;;13.50;99.90;;;;;;5072870;28;20401;-55
2022/03/18 11:41:04;;;;;;;8.25;4.30;;;13.70;99.90;;;;;;5090025;28;21014;-56
2022/03/18 11:43:39;;;;;;;12.17;5.60;;;13.90;99.90;;;;;;5070839;28;20378;-56
2022/03/18 11:46:16;;;;;;;13.55;5.75;;;14.10;99.90;;;;;;5072348;28;20379;-56
2022/03/18 11:48:54;;;;;;;7.80;4.73;;;14.00;99.90;;;;;;5072674;28;20413;-54
2022/03/18 11:51:24;;;;;;;11.05;5.32;;;14.20;99.90;;;;;;5071507;28;20501;-56
2022/03/18 11:53:52;;;;;;;13.93;6.30;;;14.20;99.90;;;;;;5071758;28;20740;-54
2022/03/18 11:56:23;;;;;;;9.45;4.97;;;13.60;99.90;;;;;;5074446;28;20378;-55
2022/03/18 11:58:50;;;;;;;12.95;6.10;;;13.90;99.90;;;;;;5090028;28;20785;-55
2022/03/18 12:01:38;;;;;;;12.85;5.32;;;14.00;99.90;;;;;;5073455;28;20814;-55
2022/03/18 12:04:06;;;;;;;11.55;5.10;;;14.30;99.90;;;;;;5075655;28;20493;-55
2022/03/18 12:06:31;;;;;;;13.48;5.20;;;14.30;99.90;;;;;;5074628;28;20382;-56
2022/03/18 12:08:58;;;;;;;11.05;5.30;;;14.50;99.90;;;;;;5090755;28;20401;-54
2022/03/18 12:11:36;;;;;;;14.93;5.47;;;14.50;99.90;;;;;;5070268;28;20409;-56
2022/03/18 12:14:08;;;;;;;9.90;5.00;;;14.70;99.90;;;;;;5072000;28;20420;-56
2022/03/18 12:16:34;;;;;;;15.15;5.40;;;14.70;99.90;;;;;;5070531;28;20464;-57
2022/03/18 12:19:08;;;;;;;11.98;5.22;;;14.80;99.90;;;;;;5071875;28;20777;-56
2022/03/18 12:21:36;;;;;;;9.38;4.50;;;15.00;99.90;;;;;;5072130;28;20413;-54
2022/03/18 12:24:07;;;;;;;8.18;3.83;;;15.30;99.90;;;;;;5070922;28;20390;-56
2022/03/18 12:26:34;;;;;;;8.57;4.10;;;15.70;99.90;;;;;;5072076;28;20383;-56
2022/03/18 12:28:59;;;;;;;9.50;3.47;;;15.80;99.90;;;;;;5073110;28;20381;-56
2022/03/18 12:31:25;;;;;;;8.97;3.47;;;15.90;99.90;;;;;;5077115;28;20459;-56
2022/03/18 12:33:58;;;;;;;8.17;3.17;;;15.80;99.90;;;;;;5077425;28;20518;-53
2022/03/18 12:36:26;;;;;;;7.78;3.47;;;15.50;99.90;;;;;;5076606;28;20378;-57
2022/03/18 12:39:08;;;;;;;8.25;3.53;;;15.50;99.90;;;;;;5076679;28;20375;-53
2022/03/18 12:41:34;;;;;;;7.45;3.40;;;15.70;99.90;;;;;;5093415;28;20381;-55
2022/03/18 12:43:59;;;;;;;10.13;3.47;;;16.10;99.90;;;;;;5094534;28;20460;-54
2022/03/18 12:46:27;;;;;;;5.90;2.83;;;16.20;99.90;;;;;;5075359;28;20394;-55
2022/03/18 12:48:53;;;;;;;5.07;2.50;;;16.00;99.90;;;;;;5092787;28;20382;-55
2022/03/18 12:51:19;;;;;;;8.20;3.17;;;15.80;99.90;;;;;;5072507;28;20826;-53
2022/03/18 12:53:46;;;;;;;8.37;3.40;;;15.80;99.90;;;;;;5073346;28;20406;-53
2022/03/18 12:56:17;;;;;;;6.83;3.27;;;16.30;99.90;;;;;;5089818;28;20459;-57
2022/03/18 12:58:45;;;;;;;8.23;3.67;;;16.30;99.90;;;;;;5073930;28;20389;-55
2022/03/18 13:01:14;;;;;;;7.20;3.20;;;16.00;99.90;;;;;;5074528;28;20394;-55